| Date | Time | Temp. (oF) | Dew Point (oF) | Rel. Hum. (%) | Press. (in.) | Wind Dir. | Wind Speed (mph) | Hourly Rainfall (in.) |
|
|---|---|---|---|---|---|---|---|---|---|
| 1 | 07/29 | 00:00 | 72 | 71 | 98 | 29.78 | NNE | 4 | 0.00 |
| 2 | 07/28 | 23:00 | 72 | 71 | 97 | 29.78 | ENE | 0 | 0.02 |
| 3 | 07/28 | 22:00 | 72 | 70 | 96 | 29.81 | SE | 0 | 0.02 |
| 4 | 07/28 | 21:00 | 73 | 71 | 95 | 29.79 | E | 0 | 0.00 |
| 5 | 07/28 | 20:00 | 74 | 71 | 93 | 29.81 | ENE | 0 | 0.00 |
| 6 | 07/28 | 19:00 | 74 | 71 | 93 | 29.79 | NE | 3 | 0.00 |
| 7 | 07/28 | 18:00 | 73 | 71 | 95 | 29.81 | NE | 1 | 0.00 |
| 8 | 07/28 | 17:00 | 72 | 70 | 95 | 29.81 | E | 9 | 0.00 |
| 9 | 07/28 | 16:00 | 70 | 69 | 97 | 29.79 | SSE | 0 | 0.02 |
| 10 | 07/28 | 15:00 | 70 | 69 | 98 | 29.80 | SSE | 4 | 0.17 |
| 11 | 07/28 | 14:00 | 70 | 68 | 96 | 29.82 | SSE | 10 | 0.45 |
| 12 | 07/28 | 13:00 | 81 | 74 | 80 | 29.79 | NNE | 1 | 0.10 |
| 13 | 07/28 | 12:00 | 84 | 70 | 65 | 29.81 | S | 0 | 0.00 |
| 14 | 07/28 | 11:00 | 86 | 72 | 65 | 29.82 | SE | 0 | 0.00 |
| 15 | 07/28 | 10:00 | 80 | 70 | 73 | 29.83 | ENE | 0 | 0.00 |
| 16 | 07/28 | 09:00 | 75 | 69 | 84 | 29.84 | ESE | 0 | 0.00 |
| 17 | 07/28 | 08:00 | 72 | 68 | 89 | 29.84 | ESE | 0 | 0.00 |
| 18 | 07/28 | 07:00 | 69 | 66 | 93 | 29.83 | E | 0 | 0.00 |
| 19 | 07/28 | 06:00 | 68 | 65 | 92 | 29.83 | ENE | 0 | 0.00 |
| 20 | 07/28 | 05:00 | 68 | 65 | 91 | 29.83 | E | 0 | 0.00 |
| 21 | 07/28 | 04:00 | 69 | 65 | 90 | 29.83 | NE | 1 | 0.00 |
| 22 | 07/28 | 03:00 | 70 | 66 | 89 | 29.84 | S | 0 | 0.00 |
| 23 | 07/28 | 02:00 | 70 | 65 | 86 | 29.84 | SSE | 0 | 0.00 |
| 24 | 07/28 | 01:00 | 71 | 66 | 85 | 29.84 | S | 0 | 0.00 |